sensor_id;sensor_type;location;lat;lon;timestamp;pressure;altitude;pressure_sealevel;temperature;humidity
13407;BME280;6774;48.208;10.766;2023-05-07T00:01:29;95492.59;;;13.55;86.25
13407;BME280;6774;48.208;10.766;2023-05-07T00:03:57;95492.38;;;13.50;86.26
13407;BME280;6774;48.208;10.766;2023-05-07T00:06:27;95481.78;;;13.44;86.36
13407;BME280;6774;48.208;10.766;2023-05-07T00:08:56;95484.25;;;13.38;86.75
13407;BME280;6774;48.208;10.766;2023-05-07T00:11:23;95489.97;;;13.35;87.02
13407;BME280;6774;48.208;10.766;2023-05-07T00:13:52;95488.31;;;13.34;87.10
13407;BME280;6774;48.208;10.766;2023-05-07T00:16:20;95491.59;;;13.36;86.70
13407;BME280;6774;48.208;10.766;2023-05-07T00:18:48;95494.44;;;13.28;86.89
13407;BME280;6774;48.208;10.766;2023-05-07T00:21:15;95496.03;;;13.16;86.82
13407;BME280;6774;48.208;10.766;2023-05-07T00:23:44;95481.97;;;13.09;86.84
13407;BME280;6774;48.208;10.766;2023-05-07T00:26:12;95483.00;;;13.08;87.11
13407;BME280;6774;48.208;10.766;2023-05-07T00:28:42;95473.81;;;12.91;87.18
13407;BME280;6774;48.208;10.766;2023-05-07T00:31:10;95474.41;;;12.86;87.17
13407;BME280;6774;48.208;10.766;2023-05-07T00:33:38;95478.47;;;12.89;87.27
13407;BME280;6774;48.208;10.766;2023-05-07T00:36:06;95483.78;;;12.89;87.13
13407;BME280;6774;48.208;10.766;2023-05-07T00:38:34;95480.97;;;12.90;86.92
13407;BME280;6774;48.208;10.766;2023-05-07T00:41:03;95487.06;;;12.91;86.99
13407;BME280;6774;48.208;10.766;2023-05-07T00:43:31;95485.81;;;12.87;86.95
13407;BME280;6774;48.208;10.766;2023-05-07T00:45:59;95478.06;;;12.78;87.39
13407;BME280;6774;48.208;10.766;2023-05-07T00:48:28;95477.69;;;12.81;86.88
13407;BME280;6774;48.208;10.766;2023-05-07T00:50:56;95482.97;;;12.81;87.20
13407;BME280;6774;48.208;10.766;2023-05-07T00:53:24;95474.41;;;12.79;87.58
13407;BME280;6774;48.208;10.766;2023-05-07T00:55:53;95476.47;;;12.84;87.78
13407;BME280;6774;48.208;10.766;2023-05-07T00:58:23;95467.69;;;12.84;87.87
13407;BME280;6774;48.208;10.766;2023-05-07T01:00:51;95471.16;;;12.84;88.21
13407;BME280;6774;48.208;10.766;2023-05-07T01:03:19;95467.28;;;12.87;88.25
13407;BME280;6774;48.208;10.766;2023-05-07T01:05:48;95470.34;;;12.84;88.22
13407;BME280;6774;48.208;10.766;2023-05-07T01:08:18;95461.38;;;12.85;88.31
13407;BME280;6774;48.208;10.766;2023-05-07T01:10:46;95469.94;;;12.87;88.43
13407;BME280;6774;48.208;10.766;2023-05-07T01:13:14;95460.16;;;12.87;88.53
13407;BME280;6774;48.208;10.766;2023-05-07T01:15:44;95463.63;;;12.88;88.54
13407;BME280;6774;48.208;10.766;2023-05-07T01:18:12;95457.28;;;12.89;88.46
13407;BME280;6774;48.208;10.766;2023-05-07T01:20:39;95459.94;;;12.89;88.47
13407;BME280;6774;48.208;10.766;2023-05-07T01:23:10;95452.81;;;12.89;88.60
13407;BME280;6774;48.208;10.766;2023-05-07T01:25:39;95455.47;;;12.89;88.54
13407;BME280;6774;48.208;10.766;2023-05-07T01:28:08;95460.59;;;12.91;88.36
13407;BME280;6774;48.208;10.766;2023-05-07T01:30:40;95456.91;;;12.92;88.28
13407;BME280;6774;48.208;10.766;2023-05-07T01:33:11;95451.63;;;12.92;88.44
13407;BME280;6774;48.208;10.766;2023-05-07T01:35:44;95454.25;;;12.92;88.27
13407;BME280;6774;48.208;10.766;2023-05-07T01:38:15;95452.81;;;12.89;88.19
13407;BME280;6774;48.208;10.766;2023-05-07T01:40:43;95463.00;;;12.86;88.20
13407;BME280;6774;48.208;10.766;2023-05-07T01:43:11;95462.81;;;12.80;88.36
13407;BME280;6774;48.208;10.766;2023-05-07T01:45:40;95470.75;;;12.80;88.31
13407;BME280;6774;48.208;10.766;2023-05-07T01:48:11;95460.78;;;12.82;88.14
13407;BME280;6774;48.208;10.766;2023-05-07T01:50:39;95456.69;;;12.80;88.27
13407;BME280;6774;48.208;10.766;2023-05-07T01:53:07;95460.97;;;12.74;88.57
13407;BME280;6774;48.208;10.766;2023-05-07T01:55:36;95465.25;;;12.75;88.46
13407;BME280;6774;48.208;10.766;2023-05-07T01:58:04;95469.50;;;12.76;88.45
13407;BME280;6774;48.208;10.766;2023-05-07T02:00:32;95467.47;;;12.78;88.43
13407;BME280;6774;48.208;10.766;2023-05-07T02:03:00;95462.81;;;12.80;88.12
13407;BME280;6774;48.208;10.766;2023-05-07T02:05:41;95471.56;;;12.81;88.51
13407;BME280;6774;48.208;10.766;2023-05-07T02:08:17;95459.31;;;12.80;88.30
13407;BME280;6774;48.208;10.766;2023-05-07T02:10:46;95473.19;;;12.75;88.08
13407;BME280;6774;48.208;10.766;2023-05-07T02:13:14;95465.44;;;12.74;88.32
13407;BME280;6774;48.208;10.766;2023-05-07T02:15:42;95464.22;;;12.76;88.26
13407;BME280;6774;48.208;10.766;2023-05-07T02:18:12;95475.41;;;12.78;88.06
13407;BME280;6774;48.208;10.766;2023-05-07T02:20:40;95473.19;;;12.75;88.09
13407;BME280;6774;48.208;10.766;2023-05-07T02:23:08;95467.88;;;12.75;88.26
13407;BME280;6774;48.208;10.766;2023-05-07T02:25:35;95473.19;;;12.75;88.09
13407;BME280;6774;48.208;10.766;2023-05-07T02:28:05;95482.16;;;12.74;87.79
13407;BME280;6774;48.208;10.766;2023-05-07T02:30:59;95467.50;;;12.72;88.06
13407;BME280;6774;48.208;10.766;2023-05-07T02:33:28;95484.19;;;12.72;88.11
13407;BME280;6774;48.208;10.766;2023-05-07T02:36:05;95472.38;;;12.75;88.52
13407;BME280;6774;48.208;10.766;2023-05-07T02:38:35;95470.75;;;12.74;88.18
13407;BME280;6774;48.208;10.766;2023-05-07T02:41:03;95473.59;;;12.72;88.20
13407;BME280;6774;48.208;10.766;2023-05-07T02:43:32;95472.78;;;12.72;88.24
13407;BME280;6774;48.208;10.766;2023-05-07T02:46:01;95471.75;;;12.73;87.97
13407;BME280;6774;48.208;10.766;2023-05-07T02:48:29;95475.59;;;12.70;88.11
13407;BME280;6774;48.208;10.766;2023-05-07T02:50:57;95475.59;;;12.70;88.16
13407;BME280;6774;48.208;10.766;2023-05-07T02:53:25;95476.41;;;12.71;87.89
13407;BME280;6774;48.208;10.766;2023-05-07T02:55:53;95465.63;;;12.66;87.91
13407;BME280;6774;48.208;10.766;2023-05-07T02:58:21;95456.06;;;12.58;87.58
13407;BME280;6774;48.208;10.766;2023-05-07T03:00:50;95455.59;;;12.41;87.36
13407;BME280;6774;48.208;10.766;2023-05-07T03:03:53;95455.16;;;12.24;87.03
13407;BME280;6774;48.208;10.766;2023-05-07T03:06:22;95460.44;;;12.24;87.32
13407;BME280;6774;48.208;10.766;2023-05-07T03:08:49;95458.81;;;12.23;86.63
13407;BME280;6774;48.208;10.766;2023-05-07T03:11:17;95459.38;;;12.12;86.77
13407;BME280;6774;48.208;10.766;2023-05-07T03:13:45;95462.00;;;11.99;86.85
13407;BME280;6774;48.208;10.766;2023-05-07T03:16:14;95462.16;;;11.91;87.24
13407;BME280;6774;48.208;10.766;2023-05-07T03:18:42;95460.28;;;11.85;87.42
13407;BME280;6774;48.208;10.766;2023-05-07T03:21:10;95467.59;;;11.83;87.37
13407;BME280;6774;48.208;10.766;2023-05-07T03:23:38;95464.34;;;11.81;87.90
13407;BME280;6774;48.208;10.766;2023-05-07T03:26:07;95456.22;;;11.82;88.04
13407;BME280;6774;48.208;10.766;2023-05-07T03:28:34;95468.03;;;11.86;88.28
13407;BME280;6774;48.208;10.766;2023-05-07T03:31:05;95465.19;;;11.88;88.54
13407;BME280;6774;48.208;10.766;2023-05-07T03:33:35;95468.47;;;11.90;88.90
13407;BME280;6774;48.208;10.766;2023-05-07T03:36:03;95468.47;;;11.90;88.87
13407;BME280;6774;48.208;10.766;2023-05-07T03:38:31;95482.69;;;11.89;89.19
13407;BME280;6774;48.208;10.766;2023-05-07T03:40:59;95474.13;;;11.87;89.19
13407;BME280;6774;48.208;10.766;2023-05-07T03:43:27;95478.78;;;11.85;89.26
13407;BME280;6774;48.208;10.766;2023-05-07T03:46:02;95479.41;;;11.87;89.24
13407;BME280;6774;48.208;10.766;2023-05-07T03:48:29;95487.34;;;11.87;89.20
13407;BME280;6774;48.208;10.766;2023-05-07T03:50:59;95482.06;;;11.87;88.96
13407;BME280;6774;48.208;10.766;2023-05-07T03:53:31;95478.59;;;11.80;88.96
13407;BME280;6774;48.208;10.766;2023-05-07T03:55:59;95482.19;;;11.79;88.84
13407;BME280;6774;48.208;10.766;2023-05-07T03:58:30;95483.88;;;11.80;89.16
13407;BME280;6774;48.208;10.766;2023-05-07T04:01:03;95483.88;;;11.80;89.28
13407;BME280;6774;48.208;10.766;2023-05-07T04:03:31;95484.28;;;11.83;89.22
13407;BME280;6774;48.208;10.766;2023-05-07T04:06:01;95481.44;;;11.85;89.03
13407;BME280;6774;48.208;10.766;2023-05-07T04:08:30;95482.06;;;11.87;89.12
13407;BME280;6774;48.208;10.766;2023-05-07T04:10:58;95480.22;;;11.87;89.10
13407;BME280;6774;48.208;10.766;2023-05-07T04:13:30;95472.13;;;11.89;89.40
13407;BME280;6774;48.208;10.766;2023-05-07T04:16:01;95482.28;;;11.92;89.07
13407;BME280;6774;48.208;10.766;2023-05-07T04:18:31;95481.91;;;11.95;89.23
13407;BME280;6774;48.208;10.766;2023-05-07T04:21:00;95484.34;;;11.96;89.05
13407;BME280;6774;48.208;10.766;2023-05-07T04:23:28;95483.94;;;11.93;89.27
13407;BME280;6774;48.208;10.766;2023-05-07T04:25:59;95482.91;;;11.94;89.12
13407;BME280;6774;48.208;10.766;2023-05-07T04:28:38;95484.16;;;11.98;89.11
13407;BME280;6774;48.208;10.766;2023-05-07T04:31:06;95491.28;;;12.04;89.35
13407;BME280;6774;48.208;10.766;2023-05-07T04:33:36;95489.69;;;12.10;89.13
13407;BME280;6774;48.208;10.766;2023-05-07T04:36:08;95490.72;;;12.15;88.92
13407;BME280;6774;48.208;10.766;2023-05-07T04:38:43;95482.00;;;12.21;88.94
13407;BME280;6774;48.208;10.766;2023-05-07T04:41:12;95478.38;;;12.29;88.42
13407;BME280;6774;48.208;10.766;2023-05-07T04:43:40;95479.41;;;12.35;88.49
13407;BME280;6774;48.208;10.766;2023-05-07T04:46:09;95480.03;;;12.43;88.45
13407;BME280;6774;48.208;10.766;2023-05-07T04:48:37;95481.31;;;12.54;88.29
13407;BME280;6774;48.208;10.766;2023-05-07T04:51:05;95481.72;;;12.64;88.04
13407;BME280;6774;48.208;10.766;2023-05-07T04:53:35;95479.72;;;12.73;87.87
13407;BME280;6774;48.208;10.766;2023-05-07T04:56:03;95482.56;;;12.85;87.75
13407;BME280;6774;48.208;10.766;2023-05-07T04:58:37;95482.16;;;12.94;87.80
13407;BME280;6774;48.208;10.766;2023-05-07T05:01:05;95486.25;;;13.03;87.55
13407;BME280;6774;48.208;10.766;2023-05-07T05:03:33;95484.63;;;13.09;87.36
13407;BME280;6774;48.208;10.766;2023-05-07T05:06:01;95494.41;;;13.15;87.60
13407;BME280;6774;48.208;10.766;2023-05-07T05:08:32;95493.19;;;13.24;87.45
13407;BME280;6774;48.208;10.766;2023-05-07T05:11:03;95501.38;;;13.29;86.87
13407;BME280;6774;48.208;10.766;2023-05-07T05:13:33;95503.81;;;13.37;86.88
13407;BME280;6774;48.208;10.766;2023-05-07T05:16:08;95499.94;;;13.47;86.95
13407;BME280;6774;48.208;10.766;2023-05-07T05:18:37;95503.41;;;13.54;86.85
13407;BME280;6774;48.208;10.766;2023-05-07T05:21:04;95498.47;;;13.71;86.61
13407;BME280;6774;48.208;10.766;2023-05-07T05:23:32;95501.72;;;13.79;86.52
13407;BME280;6774;48.208;10.766;2023-05-07T05:26:00;95497.63;;;13.90;86.59
13407;BME280;6774;48.208;10.766;2023-05-07T05:28:32;95499.41;;;14.03;86.49
13407;BME280;6774;48.208;10.766;2023-05-07T05:31:01;95495.06;;;14.15;86.45
13407;BME280;6774;48.208;10.766;2023-05-07T05:33:33;95496.06;;;14.27;86.39
13407;BME280;6774;48.208;10.766;2023-05-07T05:36:04;95495.41;;;14.38;86.34
13407;BME280;6774;48.208;10.766;2023-05-07T05:38:32;95487.97;;;14.54;85.96
13407;BME280;6774;48.208;10.766;2023-05-07T05:41:00;95494.28;;;14.66;85.34
13407;BME280;6774;48.208;10.766;2023-05-07T05:43:29;95491.97;;;14.76;85.04
13407;BME280;6774;48.208;10.766;2023-05-07T05:45:59;95499.69;;;14.84;84.83
13407;BME280;6774;48.208;10.766;2023-05-07T05:48:28;95505.34;;;14.94;84.49
13407;BME280;6774;48.208;10.766;2023-05-07T05:50:58;95504.03;;;15.03;84.31
13407;BME280;6774;48.208;10.766;2023-05-07T05:53:25;95502.75;;;15.13;83.89
13407;BME280;6774;48.208;10.766;2023-05-07T05:55:53;95505.75;;;15.23;83.26
13407;BME280;6774;48.208;10.766;2023-05-07T05:58:21;95505.03;;;15.34;83.00
13407;BME280;6774;48.208;10.766;2023-05-07T06:00:55;95500.44;;;15.48;82.54
13407;BME280;6774;48.208;10.766;2023-05-07T06:03:26;95506.69;;;15.53;82.06
13407;BME280;6774;48.208;10.766;2023-05-07T06:05:55;95512.53;;;15.69;81.95
13407;BME280;6774;48.208;10.766;2023-05-07T06:08:23;95517.75;;;15.82;81.19
13407;BME280;6774;48.208;10.766;2023-05-07T06:10:51;95511.25;;;15.96;81.22
13407;BME280;6774;48.208;10.766;2023-05-07T06:13:19;95508.44;;;16.09;80.80
13407;BME280;6774;48.208;10.766;2023-05-07T06:15:47;95511.25;;;16.14;79.67
13407;BME280;6774;48.208;10.766;2023-05-07T06:18:15;95506.78;;;16.27;79.89
13407;BME280;6774;48.208;10.766;2023-05-07T06:20:44;95516.63;;;16.44;79.51
13407;BME280;6774;48.208;10.766;2023-05-07T06:23:21;95508.25;;;16.59;79.32
13407;BME280;6774;48.208;10.766;2023-05-07T06:25:49;95511.66;;;16.66;79.12
13407;BME280;6774;48.208;10.766;2023-05-07T06:28:20;95511.50;;;16.80;78.73
13407;BME280;6774;48.208;10.766;2023-05-07T06:30:49;95514.06;;;16.86;78.45
13407;BME280;6774;48.208;10.766;2023-05-07T06:33:17;95516.41;;;16.94;78.27
13407;BME280;6774;48.208;10.766;2023-05-07T06:35:47;95522.91;;;16.98;78.29
13407;BME280;6774;48.208;10.766;2023-05-07T06:38:15;95514.69;;;17.00;78.38
13407;BME280;6774;48.208;10.766;2023-05-07T06:40:48;95517.97;;;17.14;78.56
13407;BME280;6774;48.208;10.766;2023-05-07T06:43:16;95516.38;;;17.24;78.49
13407;BME280;6774;48.208;10.766;2023-05-07T06:45:53;95518.16;;;17.42;78.02
13407;BME280;6774;48.208;10.766;2023-05-07T06:48:21;95517.13;;;17.55;78.11
13407;BME280;6774;48.208;10.766;2023-05-07T06:51:00;95517.66;;;17.75;77.81
13407;BME280;6774;48.208;10.766;2023-05-07T06:53:29;95506.25;;;17.91;77.39
13407;BME280;6774;48.208;10.766;2023-05-07T06:55:59;95504.97;;;18.06;76.83
13407;BME280;6774;48.208;10.766;2023-05-07T06:58:27;95511.56;;;18.15;76.01
13407;BME280;6774;48.208;10.766;2023-05-07T07:00:54;95515.50;;;18.24;75.97
13407;BME280;6774;48.208;10.766;2023-05-07T07:03:22;95517.34;;;18.35;75.44
13407;BME280;6774;48.208;10.766;2023-05-07T07:05:51;95512.78;;;18.47;75.63
13407;BME280;6774;48.208;10.766;2023-05-07T07:08:21;95510.53;;;18.68;76.14
13407;BME280;6774;48.208;10.766;2023-05-07T07:10:50;95516.66;;;18.80;74.51
13407;BME280;6774;48.208;10.766;2023-05-07T07:13:18;95522.63;;;18.99;75.02
13407;BME280;6774;48.208;10.766;2023-05-07T07:15:46;95518.84;;;19.12;75.00
13407;BME280;6774;48.208;10.766;2023-05-07T07:18:14;95519.09;;;19.27;74.38
13407;BME280;6774;48.208;10.766;2023-05-07T07:20:42;95513.28;;;19.30;73.54
13407;BME280;6774;48.208;10.766;2023-05-07T07:23:11;95512.97;;;19.43;73.71
13407;BME280;6774;48.208;10.766;2023-05-07T07:25:40;95513.94;;;19.54;73.21
13407;BME280;6774;48.208;10.766;2023-05-07T07:28:08;95520.44;;;19.75;72.85
13407;BME280;6774;48.208;10.766;2023-05-07T07:30:38;95518.50;;;19.87;72.75
13407;BME280;6774;48.208;10.766;2023-05-07T07:33:06;95515.88;;;19.92;72.22
13407;BME280;6774;48.208;10.766;2023-05-07T07:35:36;95521.03;;;20.15;72.59
13407;BME280;6774;48.208;10.766;2023-05-07T07:38:05;95510.06;;;20.39;72.24
13407;BME280;6774;48.208;10.766;2023-05-07T07:40:34;95514.13;;;20.58;71.43
13407;BME280;6774;48.208;10.766;2023-05-07T07:43:04;95510.91;;;20.83;71.38
13407;BME280;6774;48.208;10.766;2023-05-07T07:45:32;95519.31;;;20.92;71.17
13407;BME280;6774;48.208;10.766;2023-05-07T07:48:00;95517.88;;;21.06;67.82
13407;BME280;6774;48.208;10.766;2023-05-07T07:50:31;95519.66;;;21.22;66.25
13407;BME280;6774;48.208;10.766;2023-05-07T07:53:13;95522.81;;;21.41;65.50
13407;BME280;6774;48.208;10.766;2023-05-07T07:55:41;95527.75;;;21.54;64.26
13407;BME280;6774;48.208;10.766;2023-05-07T07:58:13;95522.75;;;21.68;64.88
13407;BME280;6774;48.208;10.766;2023-05-07T08:00:41;95531.16;;;21.77;64.62
13407;BME280;6774;48.208;10.766;2023-05-07T08:03:10;95525.13;;;21.97;64.74
13407;BME280;6774;48.208;10.766;2023-05-07T08:05:42;95527.16;;;22.17;63.10
13407;BME280;6774;48.208;10.766;2023-05-07T08:08:09;95523.19;;;22.29;62.43
13407;BME280;6774;48.208;10.766;2023-05-07T08:10:39;95527.81;;;22.39;62.35
13407;BME280;6774;48.208;10.766;2023-05-07T08:13:17;95531.66;;;22.53;63.41
13407;BME280;6774;48.208;10.766;2023-05-07T08:15:45;95527.13;;;22.64;64.55
13407;BME280;6774;48.208;10.766;2023-05-07T08:18:13;95531.50;;;22.80;63.89
13407;BME280;6774;48.208;10.766;2023-05-07T08:20:42;95524.84;;;22.98;63.78
13407;BME280;6774;48.208;10.766;2023-05-07T08:23:14;95525.16;;;23.17;62.68
13407;BME280;6774;48.208;10.766;2023-05-07T08:25:43;95520.63;;;23.33;61.91
13407;BME280;6774;48.208;10.766;2023-05-07T08:28:12;95520.66;;;23.63;60.18
13407;BME280;6774;48.208;10.766;2023-05-07T08:30:41;95517.66;;;23.95;59.51
13407;BME280;6774;48.208;10.766;2023-05-07T08:33:10;95513.91;;;24.01;60.62
13407;BME280;6774;48.208;10.766;2023-05-07T08:35:37;95515.81;;;23.96;60.32
13407;BME280;6774;48.208;10.766;2023-05-07T08:38:07;95513.31;;;24.35;60.56
13407;BME280;6774;48.208;10.766;2023-05-07T08:40:37;95509.16;;;24.68;60.16
13407;BME280;6774;48.208;10.766;2023-05-07T08:43:13;95512.09;;;24.77;59.15
13407;BME280;6774;48.208;10.766;2023-05-07T08:45:45;95514.25;;;24.80;57.98
13407;BME280;6774;48.208;10.766;2023-05-07T08:48:16;95515.34;;;24.79;58.34
13407;BME280;6774;48.208;10.766;2023-05-07T08:50:51;95506.59;;;24.97;58.55
13407;BME280;6774;48.208;10.766;2023-05-07T08:53:20;95519.09;;;25.32;57.51
13407;BME280;6774;48.208;10.766;2023-05-07T08:55:49;95526.97;;;25.23;57.17
13407;BME280;6774;48.208;10.766;2023-05-07T08:58:17;95526.81;;;25.10;56.46
13407;BME280;6774;48.208;10.766;2023-05-07T09:00:47;95522.25;;;24.95;57.16
13407;BME280;6774;48.208;10.766;2023-05-07T09:03:15;95522.78;;;25.07;56.45
13407;BME280;6774;48.208;10.766;2023-05-07T09:05:47;95522.09;;;25.31;55.40
13407;BME280;6774;48.208;10.766;2023-05-07T09:08:17;95521.59;;;25.23;54.28
13407;BME280;6774;48.208;10.766;2023-05-07T09:10:47;95523.22;;;25.24;54.77
13407;BME280;6774;48.208;10.766;2023-05-07T09:13:16;95520.75;;;25.67;54.11
13407;BME280;6774;48.208;10.766;2023-05-07T09:15:46;95522.94;;;25.70;53.71
13407;BME280;6774;48.208;10.766;2023-05-07T09:18:14;95516.69;;;25.31;53.65
13407;BME280;6774;48.208;10.766;2023-05-07T09:20:45;95519.16;;;25.27;53.54
13407;BME280;6774;48.208;10.766;2023-05-07T09:23:13;95523.25;;;25.14;54.96
13407;BME280;6774;48.208;10.766;2023-05-07T09:25:43;95522.34;;;25.34;54.92
13407;BME280;6774;48.208;10.766;2023-05-07T09:28:20;95525.09;;;25.63;52.78
13407;BME280;6774;48.208;10.766;2023-05-07T09:30:49;95522.94;;;25.65;53.59
13407;BME280;6774;48.208;10.766;2023-05-07T09:33:18;95520.38;;;25.84;52.90
13407;BME280;6774;48.208;10.766;2023-05-07T09:35:50;95517.28;;;25.96;53.23
13407;BME280;6774;48.208;10.766;2023-05-07T09:38:20;95519.47;;;25.94;54.29
13407;BME280;6774;48.208;10.766;2023-05-07T09:41:02;95521.34;;;26.22;54.14
13407;BME280;6774;48.208;10.766;2023-05-07T09:43:33;95521.75;;;26.11;51.78
13407;BME280;6774;48.208;10.766;2023-05-07T09:46:07;95521.44;;;26.17;53.68
13407;BME280;6774;48.208;10.766;2023-05-07T09:48:37;95521.72;;;26.16;52.86
13407;BME280;6774;48.208;10.766;2023-05-07T09:51:15;95514.34;;;26.21;51.92
13407;BME280;6774;48.208;10.766;2023-05-07T09:53:45;95513.06;;;26.67;51.79
13407;BME280;6774;48.208;10.766;2023-05-07T09:56:14;95512.84;;;27.06;50.35
13407;BME280;6774;48.208;10.766;2023-05-07T09:58:43;95513.00;;;27.33;49.04
13407;BME280;6774;48.208;10.766;2023-05-07T10:01:13;95511.19;;;27.66;48.97
13407;BME280;6774;48.208;10.766;2023-05-07T10:03:43;95511.94;;;27.53;47.51
13407;BME280;6774;48.208;10.766;2023-05-07T10:06:13;95517.28;;;27.39;46.34
13407;BME280;6774;48.208;10.766;2023-05-07T10:08:42;95511.69;;;27.12;46.86
13407;BME280;6774;48.208;10.766;2023-05-07T10:11:10;95521.78;;;27.06;47.59
13407;BME280;6774;48.208;10.766;2023-05-07T10:13:38;95527.09;;;26.92;46.60
13407;BME280;6774;48.208;10.766;2023-05-07T10:16:08;95517.88;;;26.93;47.60
13407;BME280;6774;48.208;10.766;2023-05-07T10:18:46;95521.72;;;26.87;46.98
13407;BME280;6774;48.208;10.766;2023-05-07T10:21:19;95514.34;;;27.17;46.63
13407;BME280;6774;48.208;10.766;2023-05-07T10:23:51;95513.69;;;27.25;46.89
13407;BME280;6774;48.208;10.766;2023-05-07T10:26:21;95516.53;;;27.53;47.05
13407;BME280;6774;48.208;10.766;2023-05-07T10:28:53;95510.59;;;28.02;46.85
13407;BME280;6774;48.208;10.766;2023-05-07T10:31:42;95511.53;;;28.25;47.06
13407;BME280;6774;48.208;10.766;2023-05-07T10:34:18;95506.97;;;28.39;46.31
13407;BME280;6774;48.208;10.766;2023-05-07T10:36:47;95509.13;;;28.23;45.96
13407;BME280;6774;48.208;10.766;2023-05-07T10:39:16;95505.47;;;28.00;47.45
13407;BME280;6774;48.208;10.766;2023-05-07T10:41:44;95503.50;;;27.55;45.86
13407;BME280;6774;48.208;10.766;2023-05-07T10:44:24;95513.59;;;27.68;45.16
13407;BME280;6774;48.208;10.766;2023-05-07T10:47:06;95512.25;;;27.84;47.94
13407;BME280;6774;48.208;10.766;2023-05-07T10:52:45;95510.91;;;28.00;48.35
13407;BME280;6774;48.208;10.766;2023-05-07T10:55:21;95512.47;;;27.88;45.57
13407;BME280;6774;48.208;10.766;2023-05-07T10:58:24;95497.34;;;27.68;44.27
13407;BME280;6774;48.208;10.766;2023-05-07T11:01:04;95510.41;;;27.98;45.51
13407;BME280;6774;48.208;10.766;2023-05-07T11:04:12;95503.28;;;28.16;42.96
13407;BME280;6774;48.208;10.766;2023-05-07T11:07:21;95493.22;;;27.89;44.02
13407;BME280;6774;48.208;10.766;2023-05-07T11:09:54;95488.28;;;28.05;43.62
13407;BME280;6774;48.208;10.766;2023-05-07T11:12:54;95489.78;;;27.97;42.23
13407;BME280;6774;48.208;10.766;2023-05-07T11:15:43;95491.06;;;27.86;43.27
13407;BME280;6774;48.208;10.766;2023-05-07T11:18:46;95484.84;;;27.86;43.95
13407;BME280;6774;48.208;10.766;2023-05-07T11:21:31;95491.84;;;27.73;43.88
13407;BME280;6774;48.208;10.766;2023-05-07T11:24:08;95488.41;;;27.67;43.73
13407;BME280;6774;48.208;10.766;2023-05-07T11:26:51;95486.94;;;27.89;45.07
13407;BME280;6774;48.208;10.766;2023-05-07T11:29:21;95488.59;;;28.03;46.42
13407;BME280;6774;48.208;10.766;2023-05-07T11:31:55;95484.66;;;28.28;46.14
13407;BME280;6774;48.208;10.766;2023-05-07T11:34:29;95482.25;;;28.41;46.50
13407;BME280;6774;48.208;10.766;2023-05-07T11:36:58;95478.31;;;27.87;45.75
13407;BME280;6774;48.208;10.766;2023-05-07T11:39:41;95480.03;;;27.96;46.27
13407;BME280;6774;48.208;10.766;2023-05-07T11:42:27;95481.31;;;27.85;45.93
13407;BME280;6774;48.208;10.766;2023-05-07T11:44:55;95479.66;;;27.70;45.09
13407;BME280;6774;48.208;10.766;2023-05-07T11:47:23;95482.50;;;27.79;47.00
13407;BME280;6774;48.208;10.766;2023-05-07T11:49:53;95467.63;;;27.76;45.61
13407;BME280;6774;48.208;10.766;2023-05-07T11:52:22;95465.91;;;27.67;46.68
13407;BME280;6774;48.208;10.766;2023-05-07T11:54:52;95464.13;;;27.76;46.09
13407;BME280;6774;48.208;10.766;2023-05-07T11:57:21;95460.41;;;27.72;45.83
13407;BME280;6774;48.208;10.766;2023-05-07T11:59:52;95463.63;;;27.74;45.45
13407;BME280;6774;48.208;10.766;2023-05-07T12:02:20;95458.91;;;27.80;45.97
13407;BME280;6774;48.208;10.766;2023-05-07T12:04:48;95459.13;;;27.83;45.63
13407;BME280;6774;48.208;10.766;2023-05-07T12:07:15;95463.41;;;27.70;44.37
13407;BME280;6774;48.208;10.766;2023-05-07T12:09:45;95467.88;;;27.80;45.00
13407;BME280;6774;48.208;10.766;2023-05-07T12:12:15;95460.09;;;27.73;46.05
13407;BME280;6774;48.208;10.766;2023-05-07T12:14:44;95455.06;;;27.48;46.14
13407;BME280;6774;48.208;10.766;2023-05-07T12:17:13;95455.56;;;27.69;46.99
13407;BME280;6774;48.208;10.766;2023-05-07T12:19:43;95462.03;;;27.73;46.82
13407;BME280;6774;48.208;10.766;2023-05-07T12:22:12;95460.13;;;27.55;46.16
13407;BME280;6774;48.208;10.766;2023-05-07T12:24:44;95465.44;;;27.60;45.52
13407;BME280;6774;48.208;10.766;2023-05-07T12:27:12;95451.50;;;27.53;45.02
13407;BME280;6774;48.208;10.766;2023-05-07T12:29:45;95446.22;;;27.42;45.11
13407;BME280;6774;48.208;10.766;2023-05-07T12:32:13;95448.66;;;27.44;45.83
13407;BME280;6774;48.208;10.766;2023-05-07T12:34:42;95453.41;;;27.33;45.14
13407;BME280;6774;48.208;10.766;2023-05-07T12:37:11;95445.44;;;27.23;46.24
13407;BME280;6774;48.208;10.766;2023-05-07T12:39:44;95452.75;;;27.23;46.82
13407;BME280;6774;48.208;10.766;2023-05-07T12:42:15;95455.44;;;27.41;47.06
13407;BME280;6774;48.208;10.766;2023-05-07T12:44:46;95447.84;;;27.43;46.74
13407;BME280;6774;48.208;10.766;2023-05-07T12:47:14;95453.66;;;27.18;46.40
13407;BME280;6774;48.208;10.766;2023-05-07T12:49:42;95451.13;;;27.40;46.17
13407;BME280;6774;48.208;10.766;2023-05-07T12:52:12;95455.59;;;27.31;45.86
13407;BME280;6774;48.208;10.766;2023-05-07T12:54:40;95452.03;;;27.36;45.96
13407;BME280;6774;48.208;10.766;2023-05-07T12:57:09;95454.88;;;27.44;46.07
13407;BME280;6774;48.208;10.766;2023-05-07T12:59:38;95456.91;;;27.53;46.59
13407;BME280;6774;48.208;10.766;2023-05-07T13:02:08;95453.38;;;27.71;46.25
13407;BME280;6774;48.208;10.766;2023-05-07T13:04:37;95446.22;;;28.08;46.90
13407;BME280;6774;48.208;10.766;2023-05-07T13:07:05;95446.81;;;28.04;46.14
13407;BME280;6774;48.208;10.766;2023-05-07T13:09:32;95448.59;;;27.82;45.57
13407;BME280;6774;48.208;10.766;2023-05-07T13:12:00;95460.97;;;27.69;44.92
13407;BME280;6774;48.208;10.766;2023-05-07T13:14:28;95454.31;;;27.61;46.92
13407;BME280;6774;48.208;10.766;2023-05-07T13:16:56;95441.38;;;27.39;46.92
13407;BME280;6774;48.208;10.766;2023-05-07T13:19:25;95438.25;;;27.32;46.01
13407;BME280;6774;48.208;10.766;2023-05-07T13:21:55;95433.50;;;27.24;45.94